sensor_id;sensor_type;location;lat;lon;timestamp;pressure;altitude;pressure_sealevel;temperature;humidity
1736;BME280;865;53.672;10.250;2023-04-25T00:00:10;100070.44;;;6.91;100.00
1736;BME280;865;53.672;10.250;2023-04-25T00:02:37;100071.25;;;6.93;100.00
1736;BME280;865;53.672;10.250;2023-04-25T00:05:03;100070.34;;;6.97;100.00
1736;BME280;865;53.672;10.250;2023-04-25T00:07:31;100069.59;;;6.89;100.00
1736;BME280;865;53.672;10.250;2023-04-25T00:09:58;100082.59;;;6.87;100.00
1736;BME280;865;53.672;10.250;2023-04-25T00:12:26;100075.69;;;6.88;100.00
1736;BME280;865;53.672;10.250;2023-04-25T00:14:54;100078.28;;;6.88;100.00
1736;BME280;865;53.672;10.250;2023-04-25T00:17:23;100086.28;;;6.72;100.00
1736;BME280;865;53.672;10.250;2023-04-25T00:19:53;100095.06;;;6.62;100.00
1736;BME280;865;53.672;10.250;2023-04-25T00:22:20;100087.38;;;6.56;100.00
1736;BME280;865;53.672;10.250;2023-04-25T00:24:47;100103.94;;;6.46;100.00
1736;BME280;865;53.672;10.250;2023-04-25T00:27:14;100102.47;;;6.23;100.00
1736;BME280;865;53.672;10.250;2023-04-25T00:29:40;100098.91;;;6.30;100.00
1736;BME280;865;53.672;10.250;2023-04-25T00:32:07;100100.69;;;6.28;100.00
1736;BME280;865;53.672;10.250;2023-04-25T00:34:33;100096.44;;;6.23;100.00
1736;BME280;865;53.672;10.250;2023-04-25T00:37:00;100097.38;;;6.17;100.00
1736;BME280;865;53.672;10.250;2023-04-25T00:39:28;100098.38;;;6.05;100.00
1736;BME280;865;53.672;10.250;2023-04-25T00:41:54;100103.56;;;6.04;100.00
1736;BME280;865;53.672;10.250;2023-04-25T00:44:21;100100.19;;;5.99;100.00
1736;BME280;865;53.672;10.250;2023-04-25T00:46:48;100105.31;;;6.00;100.00
1736;BME280;865;53.672;10.250;2023-04-25T00:49:16;100107.94;;;5.99;100.00
1736;BME280;865;53.672;10.250;2023-04-25T00:51:43;100107.00;;;6.06;100.00
1736;BME280;865;53.672;10.250;2023-04-25T00:54:13;100108.72;;;6.07;100.00
1736;BME280;865;53.672;10.250;2023-04-25T00:56:40;100107.84;;;6.06;100.00
1736;BME280;865;53.672;10.250;2023-04-25T00:59:09;100103.50;;;6.10;100.00
1736;BME280;865;53.672;10.250;2023-04-25T01:01:35;100113.97;;;5.99;100.00
1736;BME280;865;53.672;10.250;2023-04-25T01:04:02;100102.81;;;5.96;100.00
1736;BME280;865;53.672;10.250;2023-04-25T01:06:28;100100.22;;;5.91;100.00
1736;BME280;865;53.672;10.250;2023-04-25T01:08:56;100107.16;;;5.87;100.00
1736;BME280;865;53.672;10.250;2023-04-25T01:11:22;100106.34;;;5.82;100.00
1736;BME280;865;53.672;10.250;2023-04-25T01:13:48;100113.19;;;5.89;100.00
1736;BME280;865;53.672;10.250;2023-04-25T01:16:15;100108.06;;;5.86;100.00
1736;BME280;865;53.672;10.250;2023-04-25T01:18:42;100117.53;;;5.87;100.00
1736;BME280;865;53.672;10.250;2023-04-25T01:21:13;100107.13;;;5.92;100.00
1736;BME280;865;53.672;10.250;2023-04-25T01:23:41;100120.91;;;5.97;100.00
1736;BME280;865;53.672;10.250;2023-04-25T01:26:09;100120.81;;;6.03;100.00
1736;BME280;865;53.672;10.250;2023-04-25T01:28:37;100116.63;;;5.88;100.00
1736;BME280;865;53.672;10.250;2023-04-25T01:31:04;100118.41;;;5.85;100.00
1736;BME280;865;53.672;10.250;2023-04-25T01:33:32;100122.81;;;5.75;100.00
1736;BME280;865;53.672;10.250;2023-04-25T01:35:58;100115.16;;;5.66;100.00
1736;BME280;865;53.672;10.250;2023-04-25T01:38:24;100114.34;;;5.62;100.00
1736;BME280;865;53.672;10.250;2023-04-25T01:40:51;100122.00;;;5.70;100.00
1736;BME280;865;53.672;10.250;2023-04-25T01:43:18;100120.34;;;5.66;100.00
1736;BME280;865;53.672;10.250;2023-04-25T01:45:44;100110.94;;;5.57;100.00
1736;BME280;865;53.672;10.250;2023-04-25T01:48:12;100112.72;;;5.51;100.00
1736;BME280;865;53.672;10.250;2023-04-25T01:50:40;100118.84;;;5.40;100.00
1736;BME280;865;53.672;10.250;2023-04-25T01:53:08;100098.16;;;5.40;100.00
1736;BME280;865;53.672;10.250;2023-04-25T01:55:35;100103.25;;;5.48;100.00
1736;BME280;865;53.672;10.250;2023-04-25T01:58:03;100107.59;;;5.44;100.00
1736;BME280;865;53.672;10.250;2023-04-25T02:00:30;100101.56;;;5.45;100.00
1736;BME280;865;53.672;10.250;2023-04-25T02:02:59;100117.16;;;5.36;100.00
1736;BME280;865;53.672;10.250;2023-04-25T02:05:26;100107.63;;;5.41;100.00
1736;BME280;865;53.672;10.250;2023-04-25T02:07:52;100115.44;;;5.32;100.00
1736;BME280;865;53.672;10.250;2023-04-25T02:10:19;100117.16;;;5.36;100.00
1736;BME280;865;53.672;10.250;2023-04-25T02:12:45;100115.41;;;5.35;100.00
1736;BME280;865;53.672;10.250;2023-04-25T02:15:12;100124.09;;;5.33;100.00
1736;BME280;865;53.672;10.250;2023-04-25T02:17:38;100121.50;;;5.31;100.00
1736;BME280;865;53.672;10.250;2023-04-25T02:20:05;100122.41;;;5.27;100.00
1736;BME280;865;53.672;10.250;2023-04-25T02:22:32;100131.00;;;5.29;100.00
1736;BME280;865;53.672;10.250;2023-04-25T02:25:00;100129.28;;;5.28;100.00
1736;BME280;865;53.672;10.250;2023-04-25T02:27:26;100129.34;;;5.23;100.00
1736;BME280;865;53.672;10.250;2023-04-25T02:29:52;100122.47;;;5.21;100.00
1736;BME280;865;53.672;10.250;2023-04-25T02:32:19;100123.31;;;5.20;100.00
1736;BME280;865;53.672;10.250;2023-04-25T02:34:45;100125.94;;;5.15;100.00
1736;BME280;865;53.672;10.250;2023-04-25T02:37:11;100126.00;;;5.05;100.00
1736;BME280;865;53.672;10.250;2023-04-25T02:39:38;100121.75;;;4.96;100.00
1736;BME280;865;53.672;10.250;2023-04-25T02:42:04;100118.31;;;4.98;100.00
1736;BME280;865;53.672;10.250;2023-04-25T02:44:31;100120.88;;;5.01;100.00
1736;BME280;865;53.672;10.250;2023-04-25T02:46:57;100126.91;;;5.03;100.00
1736;BME280;865;53.672;10.250;2023-04-25T02:49:23;100129.44;;;5.05;100.00
1736;BME280;865;53.672;10.250;2023-04-25T02:51:50;100126.91;;;5.00;100.00
1736;BME280;865;53.672;10.250;2023-04-25T02:54:16;100134.63;;;5.07;100.00
1736;BME280;865;53.672;10.250;2023-04-25T02:56:42;100128.53;;;5.14;100.00
1736;BME280;865;53.672;10.250;2023-04-25T02:59:09;100125.97;;;5.12;100.00
1736;BME280;865;53.672;10.250;2023-04-25T03:01:35;100122.56;;;5.09;100.00
1736;BME280;865;53.672;10.250;2023-04-25T03:04:01;100126.88;;;5.02;100.00
1736;BME280;865;53.672;10.250;2023-04-25T03:06:28;100119.13;;;5.03;100.00
1736;BME280;865;53.672;10.250;2023-04-25T03:08:54;100118.34;;;4.97;100.00
1736;BME280;865;53.672;10.250;2023-04-25T03:11:20;100125.22;;;4.95;100.00
1736;BME280;865;53.672;10.250;2023-04-25T03:13:47;100115.78;;;4.88;100.00
1736;BME280;865;53.672;10.250;2023-04-25T03:16:14;100120.94;;;4.92;100.00
1736;BME280;865;53.672;10.250;2023-04-25T03:18:40;100111.50;;;4.84;100.00
1736;BME280;865;53.672;10.250;2023-04-25T03:21:07;100119.28;;;4.80;100.00
1736;BME280;865;53.672;10.250;2023-04-25T03:23:33;100125.28;;;4.84;100.00
1736;BME280;865;53.672;10.250;2023-04-25T03:26:00;100121.00;;;4.83;100.00
1736;BME280;865;53.672;10.250;2023-04-25T03:28:26;100118.44;;;4.78;100.00
1736;BME280;865;53.672;10.250;2023-04-25T03:30:52;100126.25;;;4.71;100.00
1736;BME280;865;53.672;10.250;2023-04-25T03:33:20;100140.00;;;4.70;100.00
1736;BME280;865;53.672;10.250;2023-04-25T03:35:46;100141.84;;;4.49;100.00
1736;BME280;865;53.672;10.250;2023-04-25T03:38:13;100144.41;;;4.54;100.00
1736;BME280;865;53.672;10.250;2023-04-25T03:40:39;100150.44;;;4.53;100.00
1736;BME280;865;53.672;10.250;2023-04-25T03:43:05;100153.94;;;4.44;100.00
1736;BME280;865;53.672;10.250;2023-04-25T03:45:32;100149.63;;;4.42;100.00
1736;BME280;865;53.672;10.250;2023-04-25T03:47:58;100148.75;;;4.43;100.00
1736;BME280;865;53.672;10.250;2023-04-25T03:50:25;100152.19;;;4.46;100.00
1736;BME280;865;53.672;10.250;2023-04-25T03:52:52;100150.50;;;4.41;100.00
1736;BME280;865;53.672;10.250;2023-04-25T03:55:18;100155.72;;;4.31;100.00
1736;BME280;865;53.672;10.250;2023-04-25T03:57:44;100163.44;;;4.33;100.00
1736;BME280;865;53.672;10.250;2023-04-25T04:00:11;100167.72;;;4.31;100.00
1736;BME280;865;53.672;10.250;2023-04-25T04:02:38;100166.03;;;4.28;100.00
1736;BME280;865;53.672;10.250;2023-04-25T04:05:08;100167.72;;;4.34;100.00
1736;BME280;865;53.672;10.250;2023-04-25T04:07:35;100166.88;;;4.30;100.00
1736;BME280;865;53.672;10.250;2023-04-25T04:10:15;100171.19;;;4.30;100.00
1736;BME280;865;53.672;10.250;2023-04-25T04:12:41;100170.31;;;4.28;100.00
1736;BME280;865;53.672;10.250;2023-04-25T04:15:08;100178.06;;;4.31;100.00
1736;BME280;865;53.672;10.250;2023-04-25T04:17:36;100174.63;;;4.29;100.00
1736;BME280;865;53.672;10.250;2023-04-25T04:20:02;100172.03;;;4.33;100.00
1736;BME280;865;53.672;10.250;2023-04-25T04:22:29;100172.91;;;4.32;100.00
1736;BME280;865;53.672;10.250;2023-04-25T04:24:56;100174.63;;;4.32;100.00
1736;BME280;865;53.672;10.250;2023-04-25T04:27:23;100177.22;;;4.29;100.00
1736;BME280;865;53.672;10.250;2023-04-25T04:29:49;100169.50;;;4.23;100.00
1736;BME280;865;53.672;10.250;2023-04-25T04:32:17;100182.38;;;4.30;100.00
1736;BME280;865;53.672;10.250;2023-04-25T04:34:44;100180.66;;;4.26;100.00
1736;BME280;865;53.672;10.250;2023-04-25T04:37:10;100185.84;;;4.20;100.00
1736;BME280;865;53.672;10.250;2023-04-25T04:39:39;100179.81;;;4.24;100.00
1736;BME280;865;53.672;10.250;2023-04-25T04:42:06;100177.25;;;4.23;100.00
1736;BME280;865;53.672;10.250;2023-04-25T04:44:32;100183.22;;;4.31;100.00
1736;BME280;865;53.672;10.250;2023-04-25T04:46:59;100189.28;;;4.31;100.00
1736;BME280;865;53.672;10.250;2023-04-25T04:49:25;100188.38;;;4.37;100.00
1736;BME280;865;53.672;10.250;2023-04-25T04:51:52;100192.69;;;4.38;100.00
1736;BME280;865;53.672;10.250;2023-04-25T04:54:23;100193.53;;;4.39;100.00
1736;BME280;865;53.672;10.250;2023-04-25T04:56:49;100196.09;;;4.42;100.00
1736;BME280;865;53.672;10.250;2023-04-25T04:59:16;100193.53;;;4.39;100.00
1736;BME280;865;53.672;10.250;2023-04-25T05:01:42;100194.38;;;4.44;100.00
1736;BME280;865;53.672;10.250;2023-04-25T05:04:09;100199.50;;;4.51;100.00
1736;BME280;865;53.672;10.250;2023-04-25T05:06:36;100188.28;;;4.62;100.00
1736;BME280;865;53.672;10.250;2023-04-25T05:09:02;100193.41;;;4.66;100.00
1736;BME280;865;53.672;10.250;2023-04-25T05:11:29;100203.75;;;4.68;100.00
1736;BME280;865;53.672;10.250;2023-04-25T05:13:56;100204.63;;;4.64;100.00
1736;BME280;865;53.672;10.250;2023-04-25T05:16:22;100215.78;;;4.75;100.00
1736;BME280;865;53.672;10.250;2023-04-25T05:18:49;100220.97;;;4.73;100.00
1736;BME280;865;53.672;10.250;2023-04-25T05:21:15;100213.19;;;4.75;100.00
1736;BME280;865;53.672;10.250;2023-04-25T05:23:42;100215.75;;;4.81;100.00
1736;BME280;865;53.672;10.250;2023-04-25T05:26:09;100215.69;;;4.92;100.00
1736;BME280;865;53.672;10.250;2023-04-25T05:28:40;100227.72;;;4.97;100.00
1736;BME280;865;53.672;10.250;2023-04-25T05:31:09;100224.28;;;4.95;100.00
1736;BME280;865;53.672;10.250;2023-04-25T05:33:36;100237.22;;;4.97;100.00
1736;BME280;865;53.672;10.250;2023-04-25T05:36:03;100224.28;;;4.98;100.00
1736;BME280;865;53.672;10.250;2023-04-25T05:38:29;100220.84;;;4.93;100.00
1736;BME280;865;53.672;10.250;2023-04-25T05:40:58;100229.50;;;4.89;100.00
1736;BME280;865;53.672;10.250;2023-04-25T05:43:24;100243.31;;;4.85;100.00
1736;BME280;865;53.672;10.250;2023-04-25T05:45:51;100245.88;;;4.87;100.00
1736;BME280;865;53.672;10.250;2023-04-25T05:48:17;100244.19;;;4.78;100.00
1736;BME280;865;53.672;10.250;2023-04-25T05:50:43;100245.94;;;4.67;100.00
1736;BME280;865;53.672;10.250;2023-04-25T05:53:10;100258.88;;;4.64;100.00
1736;BME280;865;53.672;10.250;2023-04-25T05:55:36;100264.88;;;4.69;100.00
1736;BME280;865;53.672;10.250;2023-04-25T05:58:02;100269.22;;;4.59;100.00
1736;BME280;865;53.672;10.250;2023-04-25T06:00:29;100266.66;;;4.54;100.00
1736;BME280;865;53.672;10.250;2023-04-25T06:02:55;100273.53;;;4.57;100.00
1736;BME280;865;53.672;10.250;2023-04-25T06:05:22;100273.53;;;4.57;100.00
1736;BME280;865;53.672;10.250;2023-04-25T06:07:48;100262.34;;;4.55;100.00
1736;BME280;865;53.672;10.250;2023-04-25T06:10:15;100267.53;;;4.53;100.00
1736;BME280;865;53.672;10.250;2023-04-25T06:12:41;100259.75;;;4.64;100.00
1736;BME280;865;53.672;10.250;2023-04-25T06:15:09;100266.63;;;4.65;100.00
1736;BME280;865;53.672;10.250;2023-04-25T06:17:52;100263.16;;;4.72;100.00
1736;BME280;865;53.672;10.250;2023-04-25T06:20:19;100261.41;;;4.77;100.00
1736;BME280;865;53.672;10.250;2023-04-25T06:22:49;100263.91;;;4.96;100.00
1736;BME280;865;53.672;10.250;2023-04-25T06:25:16;100257.88;;;4.95;100.00
1736;BME280;865;53.672;10.250;2023-04-25T06:27:43;100260.41;;;5.08;100.00
1736;BME280;865;53.672;10.250;2023-04-25T06:30:09;100254.41;;;5.01;100.00
1736;BME280;865;53.672;10.250;2023-04-25T06:32:38;100263.81;;;5.16;100.00
1736;BME280;865;53.672;10.250;2023-04-25T06:35:06;100262.00;;;5.29;100.00
1736;BME280;865;53.672;10.250;2023-04-25T06:37:32;100263.72;;;5.31;100.00
1736;BME280;865;53.672;10.250;2023-04-25T06:39:59;100264.59;;;5.32;100.00
1736;BME280;865;53.672;10.250;2023-04-25T06:42:25;100267.22;;;5.27;100.00
1736;BME280;865;53.672;10.250;2023-04-25T06:44:51;100272.41;;;5.21;100.00
1736;BME280;865;53.672;10.250;2023-04-25T06:47:18;100273.28;;;5.21;100.00
1736;BME280;865;53.672;10.250;2023-04-25T06:49:44;100272.41;;;5.24;100.00
1736;BME280;865;53.672;10.250;2023-04-25T06:52:11;100274.06;;;5.34;100.00
1736;BME280;865;53.672;10.250;2023-04-25T06:54:37;100280.91;;;5.43;100.00
1736;BME280;865;53.672;10.250;2023-04-25T06:57:03;100286.88;;;5.51;100.00
1736;BME280;865;53.672;10.250;2023-04-25T06:59:30;100284.34;;;5.40;100.00
1736;BME280;865;53.672;10.250;2023-04-25T07:01:56;100296.44;;;5.44;100.00
1736;BME280;865;53.672;10.250;2023-04-25T07:04:23;100299.03;;;5.40;100.00
1736;BME280;865;53.672;10.250;2023-04-25T07:06:49;100303.44;;;5.21;100.00
1736;BME280;865;53.672;10.250;2023-04-25T07:09:16;100318.22;;;4.91;100.00
1736;BME280;865;53.672;10.250;2023-04-25T07:11:42;100319.13;;;4.72;100.00
1736;BME280;865;53.672;10.250;2023-04-25T07:14:09;100320.81;;;4.91;100.00
1736;BME280;865;53.672;10.250;2023-04-25T07:16:35;100323.34;;;5.00;100.00
1736;BME280;865;53.672;10.250;2023-04-25T07:19:01;100322.44;;;5.08;100.00
1736;BME280;865;53.672;10.250;2023-04-25T07:21:28;100329.16;;;5.45;100.00
1736;BME280;865;53.672;10.250;2023-04-25T07:23:54;100330.78;;;5.62;100.00
1736;BME280;865;53.672;10.250;2023-04-25T07:26:21;100329.09;;;5.58;100.00
1736;BME280;865;53.672;10.250;2023-04-25T07:28:47;100330.81;;;5.59;100.00
1736;BME280;865;53.672;10.250;2023-04-25T07:31:17;100322.28;;;5.47;100.00
1736;BME280;865;53.672;10.250;2023-04-25T07:33:46;100319.53;;;5.67;100.00
1736;BME280;865;53.672;10.250;2023-04-25T07:36:13;100315.19;;;5.71;100.00
1736;BME280;865;53.672;10.250;2023-04-25T07:38:41;100307.56;;;5.54;100.00
1736;BME280;865;53.672;10.250;2023-04-25T07:41:07;100306.47;;;5.87;100.00
1736;BME280;865;53.672;10.250;2023-04-25T07:43:34;100306.44;;;5.90;100.00
1736;BME280;865;53.672;10.250;2023-04-25T07:46:00;100307.31;;;5.94;100.00
1736;BME280;865;53.672;10.250;2023-04-25T07:48:26;100315.09;;;5.89;100.00
1736;BME280;865;53.672;10.250;2023-04-25T07:50:54;100308.25;;;5.79;100.00
1736;BME280;865;53.672;10.250;2023-04-25T07:53:20;100311.81;;;5.66;100.00
1736;BME280;865;53.672;10.250;2023-04-25T07:55:47;100326.44;;;5.70;100.00
1736;BME280;865;53.672;10.250;2023-04-25T07:58:13;100316.84;;;5.84;100.00
1736;BME280;865;53.672;10.250;2023-04-25T08:00:41;100316.63;;;6.15;100.00
1736;BME280;865;53.672;10.250;2023-04-25T08:03:09;100318.38;;;6.14;100.00
1736;BME280;865;53.672;10.250;2023-04-25T08:05:36;100317.41;;;6.26;100.00
1736;BME280;865;53.672;10.250;2023-04-25T08:08:02;100316.97;;;6.72;100.00
1736;BME280;865;53.672;10.250;2023-04-25T08:10:29;100317.44;;;7.05;100.00
1736;BME280;865;53.672;10.250;2023-04-25T08:12:55;100311.91;;;7.33;100.00
1736;BME280;865;53.672;10.250;2023-04-25T08:15:21;100313.66;;;7.30;100.00
1736;BME280;865;53.672;10.250;2023-04-25T08:17:48;100313.19;;;6.99;100.00
1736;BME280;865;53.672;10.250;2023-04-25T08:20:14;100319.22;;;6.98;100.00
1736;BME280;865;53.672;10.250;2023-04-25T08:22:41;100322.78;;;6.90;100.00
1736;BME280;865;53.672;10.250;2023-04-25T08:25:07;100330.97;;;6.51;100.00
1736;BME280;865;53.672;10.250;2023-04-25T08:27:34;100336.03;;;6.67;100.00
1736;BME280;865;53.672;10.250;2023-04-25T08:30:02;100356.22;;;6.31;100.00
1736;BME280;865;53.672;10.250;2023-04-25T08:32:29;100362.56;;;5.87;100.00
1736;BME280;865;53.672;10.250;2023-04-25T08:34:56;100373.91;;;5.63;100.00
1736;BME280;865;53.672;10.250;2023-04-25T08:37:22;100385.03;;;5.83;100.00
1736;BME280;865;53.672;10.250;2023-04-25T08:39:49;100369.44;;;5.88;100.00
1736;BME280;865;53.672;10.250;2023-04-25T08:42:19;100365.03;;;6.04;100.00
1736;BME280;865;53.672;10.250;2023-04-25T08:44:47;100362.25;;;6.30;100.00
1736;BME280;865;53.672;10.250;2023-04-25T08:47:14;100363.13;;;6.32;100.00
1736;BME280;865;53.672;10.250;2023-04-25T08:49:45;100361.25;;;6.45;100.00
1736;BME280;865;53.672;10.250;2023-04-25T08:52:13;100367.22;;;6.56;100.00
1736;BME280;865;53.672;10.250;2023-04-25T08:54:44;100360.34;;;6.52;100.00
1736;BME280;865;53.672;10.250;2023-04-25T08:57:14;100367.78;;;6.85;100.00
1736;BME280;865;53.672;10.250;2023-04-25T08:59:41;100362.53;;;6.92;100.00
1736;BME280;865;53.672;10.250;2023-04-25T09:02:12;100372.25;;;7.47;100.00
1736;BME280;865;53.672;10.250;2023-04-25T09:04:45;100365.63;;;7.88;100.00
1736;BME280;865;53.672;10.250;2023-04-25T09:07:12;100369.84;;;7.95;100.00
1736;BME280;865;53.672;10.250;2023-04-25T09:09:38;100365.56;;;7.91;100.00
1736;BME280;865;53.672;10.250;2023-04-25T09:12:05;100374.56;;;7.68;100.00
1736;BME280;865;53.672;10.250;2023-04-25T09:14:32;100372.66;;;7.13;100.00
1736;BME280;865;53.672;10.250;2023-04-25T09:17:03;100371.16;;;6.92;100.00
1736;BME280;865;53.672;10.250;2023-04-25T09:19:33;100390.16;;;6.93;100.00
1736;BME280;865;53.672;10.250;2023-04-25T09:22:07;100390.34;;;6.76;100.00
1736;BME280;865;53.672;10.250;2023-04-25T09:24:43;100399.75;;;6.88;100.00
1736;BME280;865;53.672;10.250;2023-04-25T09:27:13;100394.56;;;6.88;100.00
1736;BME280;865;53.672;10.250;2023-04-25T09:29:44;100406.53;;;6.98;100.00
1736;BME280;865;53.672;10.250;2023-04-25T09:32:17;100410.81;;;7.02;100.00
1736;BME280;865;53.672;10.250;2023-04-25T09:34:46;100408.94;;;7.18;100.00
1736;BME280;865;53.672;10.250;2023-04-25T09:37:18;100407.25;;;7.12;100.00
1736;BME280;865;53.672;10.250;2023-04-25T09:39:45;100414.31;;;6.99;100.00
1736;BME280;865;53.672;10.250;2023-04-25T09:42:14;100414.38;;;6.92;100.00
1736;BME280;865;53.672;10.250;2023-04-25T09:44:45;100414.25;;;7.04;100.00
1736;BME280;865;53.672;10.250;2023-04-25T09:47:14;100417.22;;;7.46;100.00
1736;BME280;865;53.672;10.250;2023-04-25T09:49:42;100420.59;;;7.56;100.00
1736;BME280;865;53.672;10.250;2023-04-25T09:52:19;100415.13;;;7.77;100.00
1736;BME280;865;53.672;10.250;2023-04-25T09:54:47;100420.31;;;7.75;100.00
1736;BME280;865;53.672;10.250;2023-04-25T09:57:17;100425.59;;;7.69;100.00
1736;BME280;865;53.672;10.250;2023-04-25T09:59:49;100417.72;;;7.77;100.00
1736;BME280;865;53.672;10.250;2023-04-25T10:02:19;100423.03;;;7.68;100.00
1736;BME280;865;53.672;10.250;2023-04-25T10:04:50;100406.63;;;7.66;100.00
1736;BME280;865;53.672;10.250;2023-04-25T10:07:22;100436.09;;;7.60;100.00
1736;BME280;865;53.672;10.250;2023-04-25T10:09:58;100437.00;;;7.58;100.00
1736;BME280;865;53.672;10.250;2023-04-25T10:12:29;100436.22;;;7.51;100.00
1736;BME280;865;53.672;10.250;2023-04-25T10:15:00;100436.13;;;7.57;100.00
1736;BME280;865;53.672;10.250;2023-04-25T10:17:27;100446.28;;;7.77;100.00
1736;BME280;865;53.672;10.250;2023-04-25T10:19:54;100434.78;;;7.95;100.00
1736;BME280;865;53.672;10.250;2023-04-25T10:22:32;100435.78;;;7.86;100.00
1736;BME280;865;53.672;10.250;2023-04-25T10:25:00;100445.94;;;8.03;100.00
1736;BME280;865;53.672;10.250;2023-04-25T10:27:30;100433.25;;;8.40;100.00
1736;BME280;865;53.672;10.250;2023-04-25T10:30:01;100437.28;;;8.01;100.00
1736;BME280;865;53.672;10.250;2023-04-25T10:32:31;100444.56;;;8.39;100.00
1736;BME280;865;53.672;10.250;2023-04-25T10:35:10;100449.03;;;8.82;100.00
1736;BME280;865;53.672;10.250;2023-04-25T10:37:37;100446.47;;;8.23;100.00
1736;BME280;865;53.672;10.250;2023-04-25T10:40:09;100447.38;;;8.22;100.00
1736;BME280;865;53.672;10.250;2023-04-25T10:42:36;100447.28;;;8.29;100.00
1736;BME280;865;53.672;10.250;2023-04-25T10:45:04;100443.31;;;8.62;100.00
1736;BME280;865;53.672;10.250;2023-04-25T10:47:35;100449.31;;;9.15;100.00
1736;BME280;865;53.672;10.250;2023-04-25T10:50:07;100441.72;;;9.04;100.00
1736;BME280;865;53.672;10.250;2023-04-25T10:52:34;100442.81;;;8.93;100.00
1736;BME280;865;53.672;10.250;2023-04-25T10:55:03;100442.19;;;9.25;100.00
1736;BME280;865;53.672;10.250;2023-04-25T10:57:41;100442.94;;;8.85;100.00
1736;BME280;865;53.672;10.250;2023-04-25T11:00:16;100474.16;;;8.26;100.00
1736;BME280;865;53.672;10.250;2023-04-25T11:02:48;100492.91;;;7.85;100.00
1736;BME280;865;53.672;10.250;2023-04-25T11:05:27;100493.00;;;6.97;100.00
1736;BME280;865;53.672;10.250;2023-04-25T11:07:55;100486.47;;;6.48;100.00
1736;BME280;865;53.672;10.250;2023-04-25T11:10:46;100481.09;;;6.71;100.00
1736;BME280;865;53.672;10.250;2023-04-25T11:13:15;100482.59;;;7.00;100.00
1736;BME280;865;53.672;10.250;2023-04-25T11:15:41;100482.47;;;7.12;100.00
1736;BME280;865;53.672;10.250;2023-04-25T11:18:08;100489.47;;;7.05;100.00
1736;BME280;865;53.672;10.250;2023-04-25T11:20:34;100499.00;;;6.99;100.00
1736;BME280;865;53.672;10.250;2023-04-25T11:23:01;100487.91;;;6.86;100.00
1736;BME280;865;53.672;10.250;2023-04-25T11:25:27;100485.94;;;7.13;100.00
1736;BME280;865;53.672;10.250;2023-04-25T11:27:58;100488.31;;;7.33;100.00
1736;BME280;865;53.672;10.250;2023-04-25T11:30:26;100486.34;;;7.56;100.00
1736;BME280;865;53.672;10.250;2023-04-25T11:32:53;100483.41;;;7.82;100.00
1736;BME280;865;53.672;10.250;2023-04-25T11:35:20;100495.84;;;8.23;100.00
1736;BME280;865;53.672;10.250;2023-04-25T11:37:49;100493.94;;;8.36;100.00
1736;BME280;865;53.672;10.250;2023-04-25T11:40:16;100502.75;;;8.28;100.00
1736;BME280;865;53.672;10.250;2023-04-25T11:42:46;100503.69;;;8.20;100.00
1736;BME280;865;53.672;10.250;2023-04-25T11:45:14;100505.03;;;7.86;100.00
1736;BME280;865;53.672;10.250;2023-04-25T11:47:41;100495.03;;;8.20;100.00
1736;BME280;865;53.672;10.250;2023-04-25T11:50:08;100512.09;;;8.42;100.00
1736;BME280;865;53.672;10.250;2023-04-25T11:52:42;100496.06;;;8.08;100.00
1736;BME280;865;53.672;10.250;2023-04-25T11:55:15;100506.69;;;7.90;100.00
1736;BME280;865;53.672;10.250;2023-04-25T11:57:44;100515.72;;;7.58;100.00
1736;BME280;865;53.672;10.250;2023-04-25T12:00:20;100515.00;;;7.47;100.00
1736;BME280;865;53.672;10.250;2023-04-25T12:02:53;100520.34;;;7.28;100.00
1736;BME280;865;53.672;10.250;2023-04-25T12:05:23;100521.00;;;7.49;100.00
1736;BME280;865;53.672;10.250;2023-04-25T12:07:52;100518.41;;;7.50;100.00
1736;BME280;865;53.672;10.250;2023-04-25T12:10:21;100509.56;;;7.68;100.00
1736;BME280;865;53.672;10.250;2023-04-25T12:12:48;100511.56;;;8.14;100.00
1736;BME280;865;53.672;10.250;2023-04-25T12:15:16;100516.50;;;8.33;100.00
1736;BME280;865;53.672;10.250;2023-04-25T12:17:47;100527.97;;;8.19;100.00
1736;BME280;865;53.672;10.250;2023-04-25T12:20:15;100529.19;;;7.91;100.00
1736;BME280;865;53.672;10.250;2023-04-25T12:22:44;100522.53;;;7.67;100.00
1736;BME280;865;53.672;10.250;2023-04-25T12:25:39;100539.78;;;7.72;100.00
1736;BME280;865;53.672;10.250;2023-04-25T12:31:00;100535.00;;;7.34;100.00
1736;BME280;865;53.672;10.250;2023-04-25T12:33:30;100535.19;;;7.96;100.00
1736;BME280;865;53.672;10.250;2023-04-25T12:35:57;100524.06;;;8.53;100.00
1736;BME280;865;53.672;10.250;2023-04-25T12:38:30;100517.69;;;8.72;100.00
1736;BME280;865;53.672;10.250;2023-04-25T12:40:57;100525.75;;;8.55;100.00
1736;BME280;865;53.672;10.250;2023-04-25T12:43:24;100540.94;;;8.21;100.00
1736;BME280;865;53.672;10.250;2023-04-25T12:45:55;100546.56;;;7.86;100.00
1736;BME280;865;53.672;10.250;2023-04-25T12:48:22;100550.06;;;7.82;100.00
1736;BME280;865;53.672;10.250;2023-04-25T12:50:50;100560.72;;;7.57;100.00
1736;BME280;865;53.672;10.250;2023-04-25T12:53:19;100566.34;;;7.14;100.00
1736;BME280;865;53.672;10.250;2023-04-25T12:55:46;100574.19;;;7.03;100.00
1736;BME280;865;53.672;10.250;2023-04-25T12:58:13;100568.97;;;7.06;100.00
1736;BME280;865;53.672;10.250;2023-04-25T13:00:40;100579.38;;;7.05;100.00
1736;BME280;865;53.672;10.250;2023-04-25T13:03:07;100576.66;;;7.19;100.00
1736;BME280;865;53.672;10.250;2023-04-25T13:05:34;100565.84;;;7.63;100.00
1736;BME280;865;53.672;10.250;2023-04-25T13:08:01;100576.06;;;7.80;100.00
1736;BME280;865;53.672;10.250;2023-04-25T13:10:27;100570.88;;;7.79;100.00
1736;BME280;865;53.672;10.250;2023-04-25T13:12:54;100573.94;;;8.13;100.00
1736;BME280;865;53.672;10.250;2023-04-25T13:15:20;100583.63;;;8.70;100.00